Time;durP1;ratioP1;P1;durP2;ratioP2;P2;SDS_P1;SDS_P2;PMS_P1;PMS_P2;Temp;Humidity;BMP_temperature;BMP_pressure;BME280_temperature;BME280_humidity;BME280_pressure;Samples;Min_cycle;Max_cycle;Signal;HPM_P1;HPM_P2
2022/11/24 00:00:49;;;;;;;;;;;;;;;;;;5028863;28;19909;-71
2022/11/24 00:03:15;;;;;;;;;;;;;;;;;;5029212;28;20742;-73
2022/11/24 00:05:41;;;;;;;;;;;;;;;;;;5029237;28;19930;-73
2022/11/24 00:08:06;;;;;;;;;;;;;;;;;;5028326;28;20285;-72
2022/11/24 00:10:32;;;;;;;;;;;;;;;;;;5029420;28;19917;-71
2022/11/24 00:12:58;;;;;;;;;;;;;;;;;;5029268;28;19952;-71
2022/11/24 00:15:24;;;;;;;;;;;;;;;;;;5028706;28;19913;-71
2022/11/24 00:17:50;;;;;;;;;;;;;;;;;;5029037;28;19971;-72
2022/11/24 00:20:16;;;;;;;;;;;;;;;;;;5029100;28;19947;-71
2022/11/24 00:22:42;;;;;;;;;;;;;;;;;;5028794;28;19931;-72
2022/11/24 00:25:08;;;;;;;;;;;;;;;;;;5031621;28;19913;-71
2022/11/24 00:27:33;;;;;;;;;;;;;;;;;;5033346;28;20368;-72
2022/11/24 00:29:59;;;;;;;;;;;;;;;;;;5033700;28;19913;-72
2022/11/24 00:32:25;;;;;;;;;;;;;;;;;;5033059;28;20289;-72
2022/11/24 00:34:51;;;;;;;;;;;;;;;;;;5032435;28;19909;-74
2022/11/24 00:37:17;;;;;;;;;;;;;;;;;;5031964;28;20004;-74
2022/11/24 00:39:43;;;;;;;;;;;;;;;;;;5032065;28;19979;-75
2022/11/24 00:42:09;;;;;;;;;;;;;;;;;;5032304;28;19916;-72
2022/11/24 00:44:35;;;;;;;;;;;;;;;;;;5032309;28;19917;-72
2022/11/24 00:47:00;;;;;;;;;;;;;;;;;;5032166;28;19910;-72
2022/11/24 00:49:26;;;;;;;;;;;;;;;;;;5032029;28;19952;-73
2022/11/24 00:51:52;;;;;;;;;;;;;;;;;;5031865;28;20360;-71
2022/11/24 00:54:18;;;;;;;;;;;;;;;;;;5031534;28;19920;-72
2022/11/24 00:56:44;;;;;;;;;;;;;;;;;;5031517;28;20421;-72
2022/11/24 00:59:10;;;;;;;;;;;;;;;;;;5031601;28;20408;-72
2022/11/24 01:01:36;;;;;;;;;;;;;;;;;;5031722;28;19917;-72
2022/11/24 01:04:02;;;;;;;;;;;;;;;;;;5031650;28;19917;-72
2022/11/24 01:06:28;;;;;;;;;;;;;;;;;;5030235;28;20327;-71
2022/11/24 01:08:54;;;;;;;;;;;;;;;;;;5031382;28;19924;-71
2022/11/24 01:11:20;;;;;;;;;;;;;;;;;;5031154;28;19918;-72
2022/11/24 01:13:45;;;;;;;;;;;;;;;;;;5031874;28;19952;-71
2022/11/24 01:16:11;;;;;;;;;;;;;;;;;;5031373;28;19913;-71
2022/11/24 01:18:37;;;;;;;;;;;;;;;;;;5031277;28;20412;-71
2022/11/24 01:21:03;;;;;;;;;;;;;;;;;;5030971;28;19913;-71
2022/11/24 01:23:29;;;;;;;;;;;;;;;;;;5031304;28;19925;-71
2022/11/24 01:25:55;;;;;;;;;;;;;;;;;;5031364;28;19956;-71
2022/11/24 01:28:21;;;;;;;;;;;;;;;;;;5031199;28;19913;-71
2022/11/24 01:30:47;;;;;;;;;;;;;;;;;;5031167;28;20396;-71
2022/11/24 01:33:13;;;;;;;;;;;;;;;;;;5031195;28;19913;-71
2022/11/24 01:35:38;;;;;;;;;;;;;;;;;;5030454;28;19920;-71
2022/11/24 01:38:04;;;;;;;;;;;;;;;;;;5031198;28;19913;-71
2022/11/24 01:40:30;;;;;;;;;;;;;;;;;;5030935;28;20408;-71
2022/11/24 01:42:56;;;;;;;;;;;;;;;;;;5028847;28;19919;-71
2022/11/24 01:45:22;;;;;;;;;;;;;;;;;;5031123;28;19913;-71
2022/11/24 01:47:48;;;;;;;;;;;;;;;;;;5031028;28;19913;-72
2022/11/24 01:50:14;;;;;;;;;;;;;;;;;;5030162;28;19971;-74
2022/11/24 01:52:40;;;;;;;;;;;;;;;;;;5031196;28;20000;-74
2022/11/24 01:55:05;;;;;;;;;;;;;;;;;;5030497;28;20332;-74
2022/11/24 01:57:31;;;;;;;;;;;;;;;;;;5030721;28;19920;-74
2022/11/24 01:59:57;;;;;;;;;;;;;;;;;;5030362;28;20469;-74
2022/11/24 02:02:23;;;;;;;;;;;;;;;;;;5030388;28;19913;-72
2022/11/24 02:04:49;;;;;;;;;;;;;;;;;;5030498;28;20293;-72
2022/11/24 02:07:15;;;;;;;;;;;;;;;;;;5030680;28;20029;-72
2022/11/24 02:09:41;;;;;;;;;;;;;;;;;;5030746;28;19909;-72
2022/11/24 02:12:07;;;;;;;;;;;;;;;;;;5030361;28;19916;-72
2022/11/24 02:14:32;;;;;;;;;;;;;;;;;;5030746;28;20732;-72
2022/11/24 02:16:58;;;;;;;;;;;;;;;;;;5030103;28;19913;-73
2022/11/24 02:19:24;;;;;;;;;;;;;;;;;;5030134;28;20386;-73
2022/11/24 02:21:50;;;;;;;;;;;;;;;;;;5030670;28;20012;-72
2022/11/24 02:24:16;;;;;;;;;;;;;;;;;;5029929;28;20015;-72
2022/11/24 02:26:42;;;;;;;;;;;;;;;;;;5032683;28;20494;-72
2022/11/24 02:29:08;;;;;;;;;;;;;;;;;;5034993;28;19924;-71
2022/11/24 02:31:34;;;;;;;;;;;;;;;;;;5030300;28;19959;-73
2022/11/24 02:34:00;;;;;;;;;;;;;;;;;;5030078;28;19955;-72
2022/11/24 02:36:26;;;;;;;;;;;;;;;;;;5030014;28;19951;-71
2022/11/24 02:38:52;;;;;;;;;;;;;;;;;;5030118;28;20440;-72
2022/11/24 02:41:18;;;;;;;;;;;;;;;;;;5029435;28;19913;-72
2022/11/24 02:43:44;;;;;;;;;;;;;;;;;;5030143;28;19912;-72
2022/11/24 02:46:10;;;;;;;;;;;;;;;;;;5029202;28;20614;-72
2022/11/24 02:48:36;;;;;;;;;;;;;;;;;;5029400;28;19909;-72
2022/11/24 02:51:02;;;;;;;;;;;;;;;;;;5030035;28;20008;-72
2022/11/24 02:53:28;;;;;;;;;;;;;;;;;;5029855;28;19909;-71
2022/11/24 02:55:54;;;;;;;;;;;;;;;;;;5029781;28;19909;-71
2022/11/24 02:58:20;;;;;;;;;;;;;;;;;;5029810;28;20298;-72
2022/11/24 03:00:46;;;;;;;;;;;;;;;;;;5029277;28;20026;-72
2022/11/24 03:03:11;;;;;;;;;;;;;;;;;;5029346;28;20301;-71
2022/11/24 03:05:37;;;;;;;;;;;;;;;;;;5029929;28;19955;-72
2022/11/24 03:08:03;;;;;;;;;;;;;;;;;;5029556;28;19916;-71
2022/11/24 03:10:29;;;;;;;;;;;;;;;;;;5029500;28;19917;-71
2022/11/24 03:12:55;;;;;;;;;;;;;;;;;;5029657;28;20297;-72
2022/11/24 03:15:21;;;;;;;;;;;;;;;;;;5029691;28;19917;-71
2022/11/24 03:17:47;;;;;;;;;;;;;;;;;;5029937;28;19913;-71
2022/11/24 03:20:13;;;;;;;;;;;;;;;;;;5029551;28;19917;-71
2022/11/24 03:22:40;;;;;;;;;;;;;;;;;;5029568;28;19917;-71
2022/11/24 03:25:06;;;;;;;;;;;;;;;;;;5029280;28;19913;-71
2022/11/24 03:27:32;;;;;;;;;;;;;;;;;;5029414;28;19963;-71
2022/11/24 03:29:58;;;;;;;;;;;;;;;;;;5029138;28;19920;-72
2022/11/24 03:32:24;;;;;;;;;;;;;;;;;;5028966;28;19913;-71
2022/11/24 03:34:50;;;;;;;;;;;;;;;;;;5029888;28;19909;-70
2022/11/24 03:37:16;;;;;;;;;;;;;;;;;;5029088;28;19909;-70
2022/11/24 03:39:42;;;;;;;;;;;;;;;;;;5028609;28;19921;-71
2022/11/24 03:42:07;;;;;;;;;;;;;;;;;;5029383;28;20628;-70
2022/11/24 03:44:33;;;;;;;;;;;;;;;;;;5029328;28;19951;-71
2022/11/24 03:46:59;;;;;;;;;;;;;;;;;;5028705;28;20000;-70
2022/11/24 03:49:25;;;;;;;;;;;;;;;;;;5029841;28;19970;-70
2022/11/24 03:51:51;;;;;;;;;;;;;;;;;;5028880;28;19913;-71
2022/11/24 03:54:17;;;;;;;;;;;;;;;;;;5029293;28;19960;-70
2022/11/24 03:56:43;;;;;;;;;;;;;;;;;;5028964;28;19917;-71
2022/11/24 03:59:09;;;;;;;;;;;;;;;;;;5032040;28;19928;-70
2022/11/24 04:01:34;;;;;;;;;;;;;;;;;;5032613;28;19967;-70
2022/11/24 04:04:00;;;;;;;;;;;;;;;;;;5032519;28;19913;-70
2022/11/24 04:06:26;;;;;;;;;;;;;;;;;;5032459;28;19909;-70
2022/11/24 04:08:52;;;;;;;;;;;;;;;;;;5032337;28;20046;-70
2022/11/24 04:14:03;;;;;;;;;;;;;;;;;;5032170;28;20439;-71
2022/11/24 04:16:29;;;;;;;;;;;;;;;;;;5032451;28;19916;-71
2022/11/24 04:18:54;;;;;;;;;;;;;;;;;;5032607;28;19921;-71
2022/11/24 04:21:20;;;;;;;;;;;;;;;;;;5032302;28;19953;-71
2022/11/24 04:23:46;;;;;;;;;;;;;;;;;;5032498;28;19986;-71
2022/11/24 04:26:12;;;;;;;;;;;;;;;;;;5031988;28;19994;-72
2022/11/24 04:28:38;;;;;;;;;;;;;;;;;;5037596;28;19909;-71
2022/11/24 04:31:04;;;;;;;;;;;;;;;;;;5032041;28;19909;-71
2022/11/24 04:33:30;;;;;;;;;;;;;;;;;;5032508;28;20016;-71
2022/11/24 04:35:55;;;;;;;;;;;;;;;;;;5032013;28;20305;-70
2022/11/24 04:38:21;;;;;;;;;;;;;;;;;;5032434;28;19925;-70
2022/11/24 04:40:47;;;;;;;;;;;;;;;;;;5031887;28;20296;-72
2022/11/24 04:43:15;;;;;;;;;;;;;;;;;;5031746;28;19917;-72
2022/11/24 04:45:40;;;;;;;;;;;;;;;;;;5031780;28;19990;-71
2022/11/24 04:48:06;;;;;;;;;;;;;;;;;;5032840;28;19913;-72
2022/11/24 04:50:32;;;;;;;;;;;;;;;;;;5031826;28;20370;-67
2022/11/24 04:52:58;;;;;;;;;;;;;;;;;;5031832;28;19920;-70
2022/11/24 04:55:24;;;;;;;;;;;;;;;;;;5031842;28;19945;-71
2022/11/24 04:57:50;;;;;;;;;;;;;;;;;;5032047;28;20008;-71
2022/11/24 05:00:16;;;;;;;;;;;;;;;;;;5031582;28;20393;-73
2022/11/24 05:02:42;;;;;;;;;;;;;;;;;;5031904;28;19913;-71
2022/11/24 05:05:07;;;;;;;;;;;;;;;;;;5032407;28;20445;-70
2022/11/24 05:07:33;;;;;;;;;;;;;;;;;;5031693;28;19909;-69
2022/11/24 05:12:44;;;;;;;;;;;;;;;;;;5031476;28;19916;-70
2022/11/24 05:15:10;;;;;;;;;;;;;;;;;;5032457;28;19909;-70
2022/11/24 05:17:36;;;;;;;;;;;;;;;;;;5032002;28;19910;-69
2022/11/24 05:20:02;;;;;;;;;;;;;;;;;;5030925;28;19921;-69
2022/11/24 05:22:28;;;;;;;;;;;;;;;;;;5031769;28;20007;-69
2022/11/24 05:24:54;;;;;;;;;;;;;;;;;;5031705;28;20364;-69
2022/11/24 05:27:20;;;;;;;;;;;;;;;;;;5035788;28;20444;-70
2022/11/24 05:29:46;;;;;;;;;;;;;;;;;;5031696;28;19913;-69
2022/11/24 05:32:11;;;;;;;;;;;;;;;;;;5031311;28;20293;-69
2022/11/24 05:34:37;;;;;;;;;;;;;;;;;;5030978;28;20008;-71
2022/11/24 05:37:03;;;;;;;;;;;;;;;;;;5030984;28;20381;-70
2022/11/24 05:39:29;;;;;;;;;;;;;;;;;;5031052;28;19925;-71
2022/11/24 05:41:55;;;;;;;;;;;;;;;;;;5030654;28;19909;-71
2022/11/24 05:44:21;;;;;;;;;;;;;;;;;;5030488;28;19932;-71
2022/11/24 05:46:47;;;;;;;;;;;;;;;;;;5030707;28;19909;-72
2022/11/24 05:49:13;;;;;;;;;;;;;;;;;;5030685;28;19945;-71
2022/11/24 05:51:39;;;;;;;;;;;;;;;;;;5030502;28;19913;-70
2022/11/24 05:54:05;;;;;;;;;;;;;;;;;;5030005;28;19913;-71
2022/11/24 05:56:30;;;;;;;;;;;;;;;;;;5030636;28;20271;-71
2022/11/24 05:58:56;;;;;;;;;;;;;;;;;;5030592;28;19964;-71
2022/11/24 06:01:22;;;;;;;;;;;;;;;;;;5030948;28;19909;-70
2022/11/24 06:03:48;;;;;;;;;;;;;;;;;;5030563;28;19917;-71
2022/11/24 06:06:14;;;;;;;;;;;;;;;;;;5030073;28;20478;-69
2022/11/24 06:08:40;;;;;;;;;;;;;;;;;;5030208;28;19913;-71
2022/11/24 06:11:18;;;;;;;;;;;;;;;;;;5030014;28;20287;-70
2022/11/24 06:13:44;;;;;;;;;;;;;;;;;;5030188;28;19913;-70
2022/11/24 06:16:10;;;;;;;;;;;;;;;;;;5030683;28;19913;-70
2022/11/24 06:18:36;;;;;;;;;;;;;;;;;;5030119;28;20404;-70
2022/11/24 06:21:02;;;;;;;;;;;;;;;;;;5029495;28;19909;-70
2022/11/24 06:23:27;;;;;;;;;;;;;;;;;;5029870;28;19928;-70
2022/11/24 06:25:53;;;;;;;;;;;;;;;;;;5029527;28;20400;-71
2022/11/24 06:28:19;;;;;;;;;;;;;;;;;;5033798;28;19909;-71
2022/11/24 06:30:45;;;;;;;;;;;;;;;;;;5029389;28;19913;-72
2022/11/24 06:33:11;;;;;;;;;;;;;;;;;;5029856;28;19913;-70
2022/11/24 06:35:37;;;;;;;;;;;;;;;;;;5029216;28;19927;-70
2022/11/24 06:38:03;;;;;;;;;;;;;;;;;;5029552;28;19928;-69
2022/11/24 06:40:29;;;;;;;;;;;;;;;;;;5028906;28;19921;-72
2022/11/24 06:42:54;;;;;;;;;;;;;;;;;;5029868;28;19992;-71
2022/11/24 06:45:20;;;;;;;;;;;;;;;;;;5029202;28;20301;-70
2022/11/24 06:47:46;;;;;;;;;;;;;;;;;;5029602;28;19913;-71
2022/11/24 06:50:12;;;;;;;;;;;;;;;;;;5030033;28;19945;-70
2022/11/24 06:52:38;;;;;;;;;;;;;;;;;;5029760;28;19919;-71
2022/11/24 06:55:04;;;;;;;;;;;;;;;;;;5029346;28;20042;-71
2022/11/24 06:57:31;;;;;;;;;;;;;;;;;;5028708;28;19966;-72
2022/11/24 06:59:57;;;;;;;;;;;;;;;;;;5029575;28;19967;-66
2022/11/24 07:02:23;;;;;;;;;;;;;;;;;;5029291;28;19913;-65
2022/11/24 07:04:49;;;;;;;;;;;;;;;;;;5029845;28;19920;-64
2022/11/24 07:07:15;;;;;;;;;;;;;;;;;;5028748;28;19996;-66
2022/11/24 07:09:40;;;;;;;;;;;;;;;;;;5028958;28;19913;-64
2022/11/24 07:12:06;;;;;;;;;;;;;;;;;;5029148;28;20297;-65
2022/11/24 07:14:32;;;;;;;;;;;;;;;;;;5028643;28;19970;-64
2022/11/24 07:16:59;;;;;;;;;;;;;;;;;;5028547;28;19917;-63
2022/11/24 07:19:25;;;;;;;;;;;;;;;;;;5027921;28;19928;-65
2022/11/24 07:21:51;;;;;;;;;;;;;;;;;;5029323;28;19913;-63
2022/11/24 07:24:17;;;;;;;;;;;;;;;;;;5022321;28;19933;-63
2022/11/24 07:26:43;;;;;;;;;;;;;;;;;;5029190;28;20312;-64
2022/11/24 07:29:09;;;;;;;;;;;;;;;;;;5031237;28;19920;-63
2022/11/24 07:31:35;;;;;;;;;;;;;;;;;;5028705;28;19913;-65
2022/11/24 07:34:01;;;;;;;;;;;;;;;;;;5031454;28;19909;-64
2022/11/24 07:36:27;;;;;;;;;;;;;;;;;;5026279;28;20369;-63
2022/11/24 07:38:52;;;;;;;;;;;;;;;;;;5021719;28;20016;-64
2022/11/24 07:41:18;;;;;;;;;;;;;;;;;;5026575;28;19917;-65
2022/11/24 07:43:44;;;;;;;;;;;;;;;;;;5026671;28;19986;-63
2022/11/24 07:46:10;;;;;;;;;;;;;;;;;;5027464;28;19917;-64
2022/11/24 07:48:36;;;;;;;;;;;;;;;;;;5021774;28;19952;-64
2022/11/24 07:51:02;;;;;;;;;;;;;;;;;;5026391;28;20819;-64
2022/11/24 07:53:28;;;;;;;;;;;;;;;;;;5023108;28;20381;-62
2022/11/24 07:55:54;;;;;;;;;;;;;;;;;;5023442;28;20385;-65
2022/11/24 07:58:20;;;;;;;;;;;;;;;;;;5022040;28;19917;-64
2022/11/24 08:00:46;;;;;;;;;;;;;;;;;;5026926;28;19913;-63
2022/11/24 08:03:12;;;;;;;;;;;;;;;;;;5020724;28;19924;-65
2022/11/24 08:05:38;;;;;;;;;;;;;;;;;;5027654;28;19917;-65
2022/11/24 08:08:03;;;;;;;;;;;;;;;;;;5023661;28;20369;-65
2022/11/24 08:10:29;;;;;;;;;;;;;;;;;;5024894;28;19971;-65
2022/11/24 08:12:55;;;;;;;;;;;;;;;;;;5024591;28;20457;-64
2022/11/24 08:15:21;;;;;;;;;;;;;;;;;;5024715;28;19924;-65
2022/11/24 08:17:47;;;;;;;;;;;;;;;;;;5024032;28;20440;-66
2022/11/24 08:20:13;;;;;;;;;;;;;;;;;;5022474;28;19926;-65
2022/11/24 08:22:39;;;;;;;;;;;;;;;;;;5025161;28;19975;-63
2022/11/24 08:25:05;;;;;;;;;;;;;;;;;;5023089;28;19924;-64
2022/11/24 08:27:31;;;;;;;;;;;;;;;;;;5024462;28;19913;-63
2022/11/24 08:29:56;;;;;;;;;;;;;;;;;;5025923;28;20372;-64
2022/11/24 08:32:22;;;;;;;;;;;;;;;;;;5024758;28;19913;-65
2022/11/24 08:34:48;;;;;;;;;;;;;;;;;;5020082;28;20793;-65
2022/11/24 08:37:14;;;;;;;;;;;;;;;;;;5026520;28;19963;-64
2022/11/24 08:39:40;;;;;;;;;;;;;;;;;;5025032;28;19940;-64
2022/11/24 08:42:06;;;;;;;;;;;;;;;;;;5026014;28;19921;-65
2022/11/24 08:44:32;;;;;;;;;;;;;;;;;;5021207;28;19921;-64
2022/11/24 08:46:58;;;;;;;;;;;;;;;;;;5027004;28;19924;-64
2022/11/24 08:49:24;;;;;;;;;;;;;;;;;;5020712;28;20277;-65
2022/11/24 08:51:50;;;;;;;;;;;;;;;;;;5026049;28;19920;-65
2022/11/24 08:54:17;;;;;;;;;;;;;;;;;;5024557;28;19917;-65
2022/11/24 08:56:43;;;;;;;;;;;;;;;;;;5023386;28;19917;-65
2022/11/24 08:59:09;;;;;;;;;;;;;;;;;;5024005;28;19921;-65
2022/11/24 09:01:35;;;;;;;;;;;;;;;;;;5025307;28;19943;-64
2022/11/24 09:04:01;;;;;;;;;;;;;;;;;;5023503;28;19917;-65
2022/11/24 09:06:29;;;;;;;;;;;;;;;;;;5021117;28;19924;-65
2022/11/24 09:08:54;;;;;;;;;;;;;;;;;;5025850;28;19923;-66
2022/11/24 09:11:20;;;;;;;;;;;;;;;;;;5023394;28;20003;-63
2022/11/24 09:13:46;;;;;;;;;;;;;;;;;;5025038;28;19924;-66
2022/11/24 09:16:12;;;;;;;;;;;;;;;;;;5024193;28;19924;-65
2022/11/24 09:18:38;;;;;;;;;;;;;;;;;;5020267;28;19932;-66
2022/11/24 09:21:04;;;;;;;;;;;;;;;;;;5021235;28;19979;-65
2022/11/24 09:23:30;;;;;;;;;;;;;;;;;;5026820;28;20357;-65
2022/11/24 09:25:56;;;;;;;;;;;;;;;;;;5022335;28;19913;-65
2022/11/24 09:28:22;;;;;;;;;;;;;;;;;;5023386;28;19961;-65
2022/11/24 09:30:47;;;;;;;;;;;;;;;;;;5020670;28;19927;-65
2022/11/24 09:33:13;;;;;;;;;;;;;;;;;;5025543;28;19913;-65
2022/11/24 09:35:39;;;;;;;;;;;;;;;;;;5021272;28;20008;-65
2022/11/24 09:38:05;;;;;;;;;;;;;;;;;;5021503;28;19940;-66
2022/11/24 09:40:31;;;;;;;;;;;;;;;;;;5024532;28;19917;-65
2022/11/24 09:42:57;;;;;;;;;;;;;;;;;;5022247;28;20216;-65
2022/11/24 09:45:23;;;;;;;;;;;;;;;;;;5022776;28;19910;-65
2022/11/24 09:47:49;;;;;;;;;;;;;;;;;;5025004;28;20278;-64
2022/11/24 09:50:15;;;;;;;;;;;;;;;;;;5025449;28;19913;-64
2022/11/24 09:52:40;;;;;;;;;;;;;;;;;;5018875;28;20400;-65
2022/11/24 09:55:07;;;;;;;;;;;;;;;;;;5024869;28;19951;-66
2022/11/24 09:57:34;;;;;;;;;;;;;;;;;;5024687;28;19913;-64
2022/11/24 10:00:02;;;;;;;;;;;;;;;;;;5023694;28;21441;-65
2022/11/24 10:02:28;;;;;;;;;;;;;;;;;;5026951;28;19967;-63
2022/11/24 10:04:55;;;;;;;;;;;;;;;;;;5026139;28;19951;-64
2022/11/24 10:07:21;;;;;;;;;;;;;;;;;;5026213;28;20007;-63
2022/11/24 10:09:47;;;;;;;;;;;;;;;;;;5027087;28;20374;-66
2022/11/24 10:12:12;;;;;;;;;;;;;;;;;;5025384;28;19920;-64
2022/11/24 10:14:38;;;;;;;;;;;;;;;;;;5024994;28;19924;-64
2022/11/24 10:17:04;;;;;;;;;;;;;;;;;;5025345;28;19913;-65
2022/11/24 10:19:30;;;;;;;;;;;;;;;;;;5025971;28;20049;-64
2022/11/24 10:21:56;;;;;;;;;;;;;;;;;;5024957;28;19924;-64
2022/11/24 10:24:22;;;;;;;;;;;;;;;;;;5025202;28;19935;-63
2022/11/24 10:26:48;;;;;;;;;;;;;;;;;;5026265;28;19961;-64
2022/11/24 10:29:14;;;;;;;;;;;;;;;;;;5027392;28;19923;-64
2022/11/24 10:31:39;;;;;;;;;;;;;;;;;;5025918;28;20397;-67
2022/11/24 10:34:05;;;;;;;;;;;;;;;;;;5027332;28;19978;-64
2022/11/24 10:36:31;;;;;;;;;;;;;;;;;;5025693;28;20390;-65
2022/11/24 10:38:57;;;;;;;;;;;;;;;;;;5018198;28;19921;-65
2022/11/24 10:41:23;;;;;;;;;;;;;;;;;;5023902;28;20394;-65
2022/11/24 10:43:49;;;;;;;;;;;;;;;;;;5019130;28;19921;-63
2022/11/24 10:46:15;;;;;;;;;;;;;;;;;;5022863;28;20341;-64
2022/11/24 10:48:41;;;;;;;;;;;;;;;;;;5018735;28;19913;-65
2022/11/24 10:51:07;;;;;;;;;;;;;;;;;;5025593;28;19914;-65
2022/11/24 10:53:32;;;;;;;;;;;;;;;;;;5019244;28;19952;-66
2022/11/24 10:55:58;;;;;;;;;;;;;;;;;;5019583;28;19917;-65
2022/11/24 10:58:28;;;;;;;;;;;;;;;;;;5025050;28;19917;-65
2022/11/24 11:00:54;;;;;;;;;;;;;;;;;;5023894;28;19965;-65
2022/11/24 11:03:20;;;;;;;;;;;;;;;;;;5025328;28;20044;-64
2022/11/24 11:05:46;;;;;;;;;;;;;;;;;;5024116;28;19920;-66
2022/11/24 11:08:12;;;;;;;;;;;;;;;;;;5024378;28;20339;-65
2022/11/24 11:10:37;;;;;;;;;;;;;;;;;;5021354;28;19924;-65
2022/11/24 11:13:03;;;;;;;;;;;;;;;;;;5024480;28;20373;-65
2022/11/24 11:15:29;;;;;;;;;;;;;;;;;;5023077;28;19917;-65
2022/11/24 11:17:56;;;;;;;;;;;;;;;;;;5024505;28;20381;-65
2022/11/24 11:20:22;;;;;;;;;;;;;;;;;;5016599;28;19953;-64
2022/11/24 11:22:48;;;;;;;;;;;;;;;;;;5024533;28;20383;-64
2022/11/24 11:25:14;;;;;;;;;;;;;;;;;;5018059;28;20431;-64
2022/11/24 11:27:40;;;;;;;;;;;;;;;;;;5024058;28;19931;-63
2022/11/24 11:30:06;;;;;;;;;;;;;;;;;;5019425;28;20059;-65
2022/11/24 11:32:31;;;;;;;;;;;;;;;;;;5020616;28;19921;-64
2022/11/24 11:34:57;;;;;;;;;;;;;;;;;;5019927;28;19967;-65
2022/11/24 11:37:23;;;;;;;;;;;;;;;;;;5022262;28;20020;-64
2022/11/24 11:39:49;;;;;;;;;;;;;;;;;;5021032;28;19929;-65
2022/11/24 11:42:15;;;;;;;;;;;;;;;;;;5018800;28;20470;-65
2022/11/24 11:44:41;;;;;;;;;;;;;;;;;;5021855;28;20411;-65
2022/11/24 11:47:07;;;;;;;;;;;;;;;;;;5020288;28;19944;-65
2022/11/24 11:49:33;;;;;;;;;;;;;;;;;;5021832;28;19913;-64
2022/11/24 11:51:58;;;;;;;;;;;;;;;;;;5019735;28;19964;-66
2022/11/24 11:54:24;;;;;;;;;;;;;;;;;;5025406;28;19913;-65
2022/11/24 11:56:50;;;;;;;;;;;;;;;;;;5017297;28;19913;-65
2022/11/24 11:59:16;;;;;;;;;;;;;;;;;;5022213;28;20027;-65
2022/11/24 12:01:42;;;;;;;;;;;;;;;;;;5020433;28;19952;-65
2022/11/24 12:04:08;;;;;;;;;;;;;;;;;;5023494;28;19917;-66
2022/11/24 12:06:34;;;;;;;;;;;;;;;;;;5018316;28;19921;-65
2022/11/24 12:09:00;;;;;;;;;;;;;;;;;;5024161;28;19921;-65
2022/11/24 12:11:26;;;;;;;;;;;;;;;;;;5018175;28;19916;-72
2022/11/24 12:13:52;;;;;;;;;;;;;;;;;;5015658;28;19986;-71
2022/11/24 12:16:17;;;;;;;;;;;;;;;;;;5025095;28;20028;-71
2022/11/24 12:18:43;;;;;;;;;;;;;;;;;;5021061;28;19921;-71
2022/11/24 12:21:09;;;;;;;;;;;;;;;;;;5025072;28;19965;-73
2022/11/24 12:23:35;;;;;;;;;;;;;;;;;;5026559;28;19921;-72
2022/11/24 12:26:01;;;;;;;;;;;;;;;;;;5026380;28;20287;-72
2022/11/24 12:28:27;;;;;;;;;;;;;;;;;;5021882;28;19913;-70
2022/11/24 12:30:53;;;;;;;;;;;;;;;;;;5025198;28;19956;-71
2022/11/24 12:33:19;;;;;;;;;;;;;;;;;;5024816;28;19956;-72
2022/11/24 12:35:45;;;;;;;;;;;;;;;;;;5026432;28;20377;-74
2022/11/24 12:38:11;;;;;;;;;;;;;;;;;;5020611;28;20015;-71
2022/11/24 12:40:37;;;;;;;;;;;;;;;;;;5026949;28;19921;-72
2022/11/24 12:43:03;;;;;;;;;;;;;;;;;;5031782;28;19924;-73
2022/11/24 12:45:29;;;;;;;;;;;;;;;;;;5030763;28;20088;-72
2022/11/24 12:47:55;;;;;;;;;;;;;;;;;;5031503;28;20425;-72
2022/11/24 12:50:21;;;;;;;;;;;;;;;;;;5031348;28;19943;-70
2022/11/24 12:52:47;;;;;;;;;;;;;;;;;;5032270;28;19916;-72
2022/11/24 12:55:13;;;;;;;;;;;;;;;;;;5032306;28;20258;-71
2022/11/24 12:57:39;;;;;;;;;;;;;;;;;;5031576;28;19924;-72
2022/11/24 13:00:07;;;;;;;;;;;;;;;;;;5031718;28;19999;-72
2022/11/24 13:02:33;;;;;;;;;;;;;;;;;;5031918;28;19915;-72
2022/11/24 13:04:59;;;;;;;;;;;;;;;;;;5031728;28;19913;-72
2022/11/24 13:07:25;;;;;;;;;;;;;;;;;;5031806;28;19910;-71
2022/11/24 13:09:51;;;;;;;;;;;;;;;;;;5031550;28;20305;-72
2022/11/24 13:12:17;;;;;;;;;;;;;;;;;;5031348;28;19974;-72
2022/11/24 13:14:43;;;;;;;;;;;;;;;;;;5031733;28;20397;-72
2022/11/24 13:17:08;;;;;;;;;;;;;;;;;;5031520;28;19909;-72
2022/11/24 13:19:34;;;;;;;;;;;;;;;;;;5031369;28;19921;-71
2022/11/24 13:22:00;;;;;;;;;;;;;;;;;;5031438;28;20341;-72
2022/11/24 13:24:26;;;;;;;;;;;;;;;;;;5031208;28;19978;-73
2022/11/24 13:26:52;;;;;;;;;;;;;;;;;;5032358;28;19949;-74
2022/11/24 13:29:18;;;;;;;;;;;;;;;;;;5031376;28;19909;-72
2022/11/24 13:31:44;;;;;;;;;;;;;;;;;;5030684;28;19920;-72
2022/11/24 13:34:10;;;;;;;;;;;;;;;;;;5031193;28;19910;-72
2022/11/24 13:36:36;;;;;;;;;;;;;;;;;;5030570;28;19940;-72
2022/11/24 13:39:02;;;;;;;;;;;;;;;;;;5031013;28;19921;-72
2022/11/24 13:41:28;;;;;;;;;;;;;;;;;;5030907;28;19992;-72
2022/11/24 13:43:54;;;;;;;;;;;;;;;;;;5030485;28;19913;-70
2022/11/24 13:46:20;;;;;;;;;;;;;;;;;;5030868;28;19913;-72
2022/11/24 13:48:45;;;;;;;;;;;;;;;;;;5030913;28;19982;-72
2022/11/24 13:51:11;;;;;;;;;;;;;;;;;;5030562;28;19920;-72
2022/11/24 13:53:37;;;;;;;;;;;;;;;;;;5030816;28;19913;-71
2022/11/24 13:56:03;;;;;;;;;;;;;;;;;;5030147;28;19940;-72
2022/11/24 13:58:29;;;;;;;;;;;;;;;;;;5030567;28;19916;-72
2022/11/24 14:00:55;;;;;;;;;;;;;;;;;;5031102;28;19913;-71
2022/11/24 14:03:21;;;;;;;;;;;;;;;;;;5030339;28;20435;-72
2022/11/24 14:05:47;;;;;;;;;;;;;;;;;;5030700;28;19932;-72
2022/11/24 14:08:12;;;;;;;;;;;;;;;;;;5030398;28;20396;-72
2022/11/24 14:10:38;;;;;;;;;;;;;;;;;;5030544;28;19913;-72
2022/11/24 14:13:04;;;;;;;;;;;;;;;;;;5030332;28;20282;-73
2022/11/24 14:15:34;;;;;;;;;;;;;;;;;;5030582;28;19945;-72
2022/11/24 14:18:00;;;;;;;;;;;;;;;;;;5030056;28;19963;-72
2022/11/24 14:20:25;;;;;;;;;;;;;;;;;;5030018;28;19921;-73
2022/11/24 14:22:51;;;;;;;;;;;;;;;;;;5029725;28;19924;-72
2022/11/24 14:25:17;;;;;;;;;;;;;;;;;;5030712;28;20296;-72
2022/11/24 14:27:43;;;;;;;;;;;;;;;;;;5030618;28;19940;-73
2022/11/24 14:30:11;;;;;;;;;;;;;;;;;;5029745;28;20254;-72
2022/11/24 14:32:36;;;;;;;;;;;;;;;;;;5030068;28;19909;-72
2022/11/24 14:35:02;;;;;;;;;;;;;;;;;;5029383;28;19913;-73
2022/11/24 14:37:28;;;;;;;;;;;;;;;;;;5029997;28;20404;-73
2022/11/24 14:39:54;;;;;;;;;;;;;;;;;;5029627;28;19917;-73
2022/11/24 14:42:20;;;;;;;;;;;;;;;;;;5029196;28;19913;-72
2022/11/24 14:44:46;;;;;;;;;;;;;;;;;;5029917;28;19921;-72
2022/11/24 14:47:12;;;;;;;;;;;;;;;;;;5029525;28;19915;-72
2022/11/24 14:49:38;;;;;;;;;;;;;;;;;;5027983;28;20493;-72
2022/11/24 14:52:04;;;;;;;;;;;;;;;;;;5029560;28;19909;-72
2022/11/24 14:54:29;;;;;;;;;;;;;;;;;;5029614;28;20457;-72
2022/11/24 14:56:55;;;;;;;;;;;;;;;;;;5029262;28;19917;-72
2022/11/24 14:59:21;;;;;;;;;;;;;;;;;;5029536;28;19982;-72
2022/11/24 15:01:47;;;;;;;;;;;;;;;;;;5029710;28;20008;-73
2022/11/24 15:04:13;;;;;;;;;;;;;;;;;;5029642;28;19909;-72
2022/11/24 15:06:39;;;;;;;;;;;;;;;;;;5029381;28;19928;-72
2022/11/24 15:09:05;;;;;;;;;;;;;;;;;;5029298;28;19962;-72
2022/11/24 15:11:31;;;;;;;;;;;;;;;;;;5029891;28;19944;-72
2022/11/24 15:13:57;;;;;;;;;;;;;;;;;;5029283;28;19913;-72
2022/11/24 15:16:22;;;;;;;;;;;;;;;;;;5029561;28;19921;-71
2022/11/24 15:18:48;;;;;;;;;;;;;;;;;;5028954;28;19920;-72
2022/11/24 15:21:14;;;;;;;;;;;;;;;;;;5029260;28;20392;-72
2022/11/24 15:23:40;;;;;;;;;;;;;;;;;;5029104;28;19948;-73
2022/11/24 15:26:09;;;;;;;;;;;;;;;;;;5026588;28;19993;-72
2022/11/24 15:28:35;;;;;;;;;;;;;;;;;;5029605;28;19909;-71
2022/11/24 15:31:01;;;;;;;;;;;;;;;;;;5029183;28;19936;-73
2022/11/24 15:33:27;;;;;;;;;;;;;;;;;;5029556;28;19959;-71
2022/11/24 15:35:53;;;;;;;;;;;;;;;;;;5028769;28;20297;-72
2022/11/24 15:38:19;;;;;;;;;;;;;;;;;;5028737;28;20015;-71
2022/11/24 15:40:45;;;;;;;;;;;;;;;;;;5029074;28;19948;-73
2022/11/24 15:43:11;;;;;;;;;;;;;;;;;;5029045;28;19913;-73
2022/11/24 15:45:37;;;;;;;;;;;;;;;;;;5028783;28;19936;-72
2022/11/24 15:48:02;;;;;;;;;;;;;;;;;;5029275;28;19913;-72
2022/11/24 15:50:28;;;;;;;;;;;;;;;;;;5029039;28;20516;-73
2022/11/24 15:52:54;;;;;;;;;;;;;;;;;;5028934;28;20020;-72
2022/11/24 15:55:20;;;;;;;;;;;;;;;;;;5032165;28;19995;-72
2022/11/24 15:57:46;;;;;;;;;;;;;;;;;;5033015;28;19909;-72
2022/11/24 16:00:12;;;;;;;;;;;;;;;;;;5032725;28;19991;-72
2022/11/24 16:02:38;;;;;;;;;;;;;;;;;;5032829;28;19999;-71
2022/11/24 16:05:04;;;;;;;;;;;;;;;;;;5033014;28;20261;-73
2022/11/24 16:07:31;;;;;;;;;;;;;;;;;;5032709;28;19963;-72
2022/11/24 16:09:56;;;;;;;;;;;;;;;;;;5032474;28;19935;-72
2022/11/24 16:12:23;;;;;;;;;;;;;;;;;;5033053;28;19925;-72
2022/11/24 16:14:49;;;;;;;;;;;;;;;;;;5032360;28;19974;-72
2022/11/24 16:17:15;;;;;;;;;;;;;;;;;;5032483;28;20324;-72
2022/11/24 16:19:41;;;;;;;;;;;;;;;;;;5031827;28;19964;-72
2022/11/24 16:22:07;;;;;;;;;;;;;;;;;;5032261;28;19916;-73
2022/11/24 16:24:33;;;;;;;;;;;;;;;;;;5032346;28;20004;-73
2022/11/24 16:26:58;;;;;;;;;;;;;;;;;;5036808;28;20288;-72
2022/11/24 16:29:24;;;;;;;;;;;;;;;;;;5034585;28;19916;-70
2022/11/24 16:31:50;;;;;;;;;;;;;;;;;;5032375;28;20361;-72
2022/11/24 16:34:16;;;;;;;;;;;;;;;;;;5032095;28;19913;-72
2022/11/24 16:36:42;;;;;;;;;;;;;;;;;;5032280;28;19956;-73
2022/11/24 16:39:08;;;;;;;;;;;;;;;;;;5031995;28;19917;-73
2022/11/24 16:41:34;;;;;;;;;;;;;;;;;;5031883;28;19917;-73